sensor_id;sensor_type;location;lat;lon;timestamp;P1;durP1;ratioP1;P2;durP2;ratioP2
18789;SDS011;9523;42.650;23.386;2023-03-03T00:01:19;5.93;;;3.40;;
18789;SDS011;9523;42.650;23.386;2023-03-03T00:03:49;4.50;;;3.47;;
18789;SDS011;9523;42.650;23.386;2023-03-03T00:06:16;5.77;;;3.93;;
18789;SDS011;9523;42.650;23.386;2023-03-03T00:08:43;4.43;;;3.43;;
18789;SDS011;9523;42.650;23.386;2023-03-03T00:11:10;5.30;;;3.80;;
18789;SDS011;9523;42.650;23.386;2023-03-03T00:13:40;6.93;;;4.17;;
18789;SDS011;9523;42.650;23.386;2023-03-03T00:16:15;6.17;;;3.80;;
18789;SDS011;9523;42.650;23.386;2023-03-03T00:18:48;7.47;;;4.93;;
18789;SDS011;9523;42.650;23.386;2023-03-03T00:21:22;5.57;;;4.40;;
18789;SDS011;9523;42.650;23.386;2023-03-03T00:23:53;6.43;;;4.53;;
18789;SDS011;9523;42.650;23.386;2023-03-03T00:26:21;6.07;;;4.63;;
18789;SDS011;9523;42.650;23.386;2023-03-03T00:28:50;8.17;;;5.23;;
18789;SDS011;9523;42.650;23.386;2023-03-03T00:31:22;7.97;;;5.40;;
18789;SDS011;9523;42.650;23.386;2023-03-03T00:33:56;5.97;;;4.33;;
18789;SDS011;9523;42.650;23.386;2023-03-03T00:36:32;7.03;;;5.20;;
18789;SDS011;9523;42.650;23.386;2023-03-03T00:39:10;7.77;;;5.10;;
18789;SDS011;9523;42.650;23.386;2023-03-03T00:41:52;6.77;;;4.97;;
18789;SDS011;9523;42.650;23.386;2023-03-03T00:44:38;7.23;;;4.90;;
18789;SDS011;9523;42.650;23.386;2023-03-03T00:49:52;6.30;;;5.30;;
18789;SDS011;9523;42.650;23.386;2023-03-03T00:52:19;7.33;;;4.80;;
18789;SDS011;9523;42.650;23.386;2023-03-03T00:54:46;7.10;;;5.13;;
18789;SDS011;9523;42.650;23.386;2023-03-03T00:57:13;7.43;;;4.83;;
18789;SDS011;9523;42.650;23.386;2023-03-03T00:59:40;6.10;;;4.30;;
18789;SDS011;9523;42.650;23.386;2023-03-03T01:02:07;7.53;;;5.10;;
18789;SDS011;9523;42.650;23.386;2023-03-03T01:04:34;7.40;;;5.10;;
18789;SDS011;9523;42.650;23.386;2023-03-03T01:07:02;7.07;;;4.80;;
18789;SDS011;9523;42.650;23.386;2023-03-03T01:09:29;6.83;;;5.07;;
18789;SDS011;9523;42.650;23.386;2023-03-03T01:11:56;5.87;;;4.70;;
18789;SDS011;9523;42.650;23.386;2023-03-03T01:14:23;7.37;;;4.93;;
18789;SDS011;9523;42.650;23.386;2023-03-03T01:16:50;6.87;;;4.57;;
18789;SDS011;9523;42.650;23.386;2023-03-03T01:19:16;7.07;;;4.90;;
18789;SDS011;9523;42.650;23.386;2023-03-03T01:21:43;9.53;;;5.03;;
18789;SDS011;9523;42.650;23.386;2023-03-03T01:24:11;8.10;;;5.13;;
18789;SDS011;9523;42.650;23.386;2023-03-03T01:26:38;6.43;;;4.93;;
18789;SDS011;9523;42.650;23.386;2023-03-03T01:29:05;7.40;;;5.00;;
18789;SDS011;9523;42.650;23.386;2023-03-03T01:31:32;7.33;;;4.83;;
18789;SDS011;9523;42.650;23.386;2023-03-03T01:33:59;7.73;;;4.60;;
18789;SDS011;9523;42.650;23.386;2023-03-03T01:36:26;6.27;;;4.10;;
18789;SDS011;9523;42.650;23.386;2023-03-03T01:38:54;6.70;;;4.47;;
18789;SDS011;9523;42.650;23.386;2023-03-03T01:41:22;6.17;;;4.73;;
18789;SDS011;9523;42.650;23.386;2023-03-03T01:43:54;7.23;;;4.23;;
18789;SDS011;9523;42.650;23.386;2023-03-03T01:46:27;6.23;;;4.57;;
18789;SDS011;9523;42.650;23.386;2023-03-03T01:49:16;7.17;;;4.47;;
18789;SDS011;9523;42.650;23.386;2023-03-03T01:51:47;8.03;;;4.80;;
18789;SDS011;9523;42.650;23.386;2023-03-03T01:54:19;7.07;;;4.67;;
18789;SDS011;9523;42.650;23.386;2023-03-03T01:56:52;7.27;;;4.43;;
18789;SDS011;9523;42.650;23.386;2023-03-03T01:59:22;5.70;;;4.03;;
18789;SDS011;9523;42.650;23.386;2023-03-03T02:01:52;6.63;;;4.07;;
18789;SDS011;9523;42.650;23.386;2023-03-03T02:04:19;5.83;;;4.33;;
18789;SDS011;9523;42.650;23.386;2023-03-03T02:06:48;6.97;;;4.63;;
18789;SDS011;9523;42.650;23.386;2023-03-03T02:09:23;6.07;;;4.17;;
18789;SDS011;9523;42.650;23.386;2023-03-03T02:12:00;6.93;;;4.10;;
18789;SDS011;9523;42.650;23.386;2023-03-03T02:14:30;8.23;;;4.97;;
18789;SDS011;9523;42.650;23.386;2023-03-03T02:16:57;8.57;;;5.00;;
18789;SDS011;9523;42.650;23.386;2023-03-03T02:19:26;6.90;;;4.97;;
18789;SDS011;9523;42.650;23.386;2023-03-03T02:22:00;8.07;;;5.20;;
18789;SDS011;9523;42.650;23.386;2023-03-03T02:24:29;7.00;;;5.10;;
18789;SDS011;9523;42.650;23.386;2023-03-03T02:27:05;6.80;;;5.20;;
18789;SDS011;9523;42.650;23.386;2023-03-03T02:29:32;8.40;;;5.40;;
18789;SDS011;9523;42.650;23.386;2023-03-03T02:31:59;7.53;;;5.33;;
18789;SDS011;9523;42.650;23.386;2023-03-03T02:34:25;8.33;;;5.57;;
18789;SDS011;9523;42.650;23.386;2023-03-03T02:36:52;9.20;;;5.93;;
18789;SDS011;9523;42.650;23.386;2023-03-03T02:39:20;9.00;;;5.80;;
18789;SDS011;9523;42.650;23.386;2023-03-03T02:41:49;8.73;;;6.37;;
18789;SDS011;9523;42.650;23.386;2023-03-03T02:44:21;9.83;;;6.33;;
18789;SDS011;9523;42.650;23.386;2023-03-03T02:46:50;7.73;;;6.13;;
18789;SDS011;9523;42.650;23.386;2023-03-03T02:49:18;9.87;;;6.80;;
18789;SDS011;9523;42.650;23.386;2023-03-03T02:51:47;10.90;;;6.33;;
18789;SDS011;9523;42.650;23.386;2023-03-03T02:54:14;10.30;;;6.53;;
18789;SDS011;9523;42.650;23.386;2023-03-03T02:56:42;9.70;;;6.50;;
18789;SDS011;9523;42.650;23.386;2023-03-03T02:59:09;9.63;;;6.53;;
18789;SDS011;9523;42.650;23.386;2023-03-03T03:01:38;8.90;;;6.17;;
18789;SDS011;9523;42.650;23.386;2023-03-03T03:04:06;10.97;;;6.23;;
18789;SDS011;9523;42.650;23.386;2023-03-03T03:06:35;8.90;;;6.77;;
18789;SDS011;9523;42.650;23.386;2023-03-03T03:09:02;10.63;;;6.37;;
18789;SDS011;9523;42.650;23.386;2023-03-03T03:11:29;11.43;;;6.83;;
18789;SDS011;9523;42.650;23.386;2023-03-03T03:13:56;9.60;;;6.57;;
18789;SDS011;9523;42.650;23.386;2023-03-03T03:16:23;10.87;;;6.80;;
18789;SDS011;9523;42.650;23.386;2023-03-03T03:18:52;8.80;;;6.20;;
18789;SDS011;9523;42.650;23.386;2023-03-03T03:21:18;10.10;;;6.53;;
18789;SDS011;9523;42.650;23.386;2023-03-03T03:23:45;10.37;;;7.43;;
18789;SDS011;9523;42.650;23.386;2023-03-03T03:26:12;10.00;;;6.77;;
18789;SDS011;9523;42.650;23.386;2023-03-03T03:28:39;10.70;;;7.10;;
18789;SDS011;9523;42.650;23.386;2023-03-03T03:31:06;11.03;;;7.30;;
18789;SDS011;9523;42.650;23.386;2023-03-03T03:33:34;9.93;;;6.67;;
18789;SDS011;9523;42.650;23.386;2023-03-03T03:36:03;10.30;;;7.00;;
18789;SDS011;9523;42.650;23.386;2023-03-03T03:38:30;10.60;;;6.90;;
18789;SDS011;9523;42.650;23.386;2023-03-03T03:40:58;10.80;;;6.93;;
18789;SDS011;9523;42.650;23.386;2023-03-03T03:43:25;11.30;;;7.33;;
18789;SDS011;9523;42.650;23.386;2023-03-03T03:45:52;12.43;;;7.40;;
18789;SDS011;9523;42.650;23.386;2023-03-03T03:48:19;10.53;;;7.03;;
18789;SDS011;9523;42.650;23.386;2023-03-03T03:50:46;11.60;;;7.53;;
18789;SDS011;9523;42.650;23.386;2023-03-03T03:53:15;12.73;;;7.47;;
18789;SDS011;9523;42.650;23.386;2023-03-03T03:55:42;10.13;;;7.07;;
18789;SDS011;9523;42.650;23.386;2023-03-03T03:58:11;12.67;;;8.33;;
18789;SDS011;9523;42.650;23.386;2023-03-03T04:00:39;10.97;;;7.43;;
18789;SDS011;9523;42.650;23.386;2023-03-03T04:03:06;11.93;;;8.17;;
18789;SDS011;9523;42.650;23.386;2023-03-03T04:05:33;15.13;;;7.93;;
18789;SDS011;9523;42.650;23.386;2023-03-03T04:07:59;12.37;;;7.53;;
18789;SDS011;9523;42.650;23.386;2023-03-03T04:10:28;11.80;;;7.23;;
18789;SDS011;9523;42.650;23.386;2023-03-03T04:12:55;12.80;;;8.20;;
18789;SDS011;9523;42.650;23.386;2023-03-03T04:15:22;13.90;;;7.97;;
18789;SDS011;9523;42.650;23.386;2023-03-03T04:17:48;11.07;;;7.93;;
18789;SDS011;9523;42.650;23.386;2023-03-03T04:20:15;15.80;;;8.00;;
18789;SDS011;9523;42.650;23.386;2023-03-03T04:22:42;13.63;;;8.23;;
18789;SDS011;9523;42.650;23.386;2023-03-03T04:25:10;15.47;;;9.47;;
18789;SDS011;9523;42.650;23.386;2023-03-03T04:27:40;12.90;;;8.50;;
18789;SDS011;9523;42.650;23.386;2023-03-03T04:30:09;17.00;;;9.80;;
18789;SDS011;9523;42.650;23.386;2023-03-03T04:32:37;15.80;;;9.27;;
18789;SDS011;9523;42.650;23.386;2023-03-03T04:35:04;18.27;;;9.70;;
18789;SDS011;9523;42.650;23.386;2023-03-03T04:37:31;16.53;;;9.90;;
18789;SDS011;9523;42.650;23.386;2023-03-03T04:39:58;14.77;;;9.23;;
18789;SDS011;9523;42.650;23.386;2023-03-03T04:42:25;15.10;;;9.70;;
18789;SDS011;9523;42.650;23.386;2023-03-03T04:44:54;17.73;;;10.10;;
18789;SDS011;9523;42.650;23.386;2023-03-03T04:47:21;17.67;;;9.90;;
18789;SDS011;9523;42.650;23.386;2023-03-03T04:49:48;16.93;;;10.33;;
18789;SDS011;9523;42.650;23.386;2023-03-03T04:52:15;14.37;;;9.47;;
18789;SDS011;9523;42.650;23.386;2023-03-03T04:54:42;15.43;;;9.80;;
18789;SDS011;9523;42.650;23.386;2023-03-03T04:57:08;17.90;;;9.63;;
18789;SDS011;9523;42.650;23.386;2023-03-03T04:59:35;16.53;;;10.17;;
18789;SDS011;9523;42.650;23.386;2023-03-03T05:02:03;14.30;;;8.97;;
18789;SDS011;9523;42.650;23.386;2023-03-03T05:04:31;16.50;;;9.40;;
18789;SDS011;9523;42.650;23.386;2023-03-03T05:06:58;15.37;;;9.57;;
18789;SDS011;9523;42.650;23.386;2023-03-03T05:09:25;14.67;;;8.50;;
18789;SDS011;9523;42.650;23.386;2023-03-03T05:11:52;15.60;;;8.70;;
18789;SDS011;9523;42.650;23.386;2023-03-03T05:14:19;15.83;;;9.20;;
18789;SDS011;9523;42.650;23.386;2023-03-03T05:16:46;16.43;;;9.13;;
18789;SDS011;9523;42.650;23.386;2023-03-03T05:19:14;14.97;;;8.47;;
18789;SDS011;9523;42.650;23.386;2023-03-03T05:21:41;16.17;;;8.77;;
18789;SDS011;9523;42.650;23.386;2023-03-03T05:24:09;17.23;;;9.67;;
18789;SDS011;9523;42.650;23.386;2023-03-03T05:26:36;17.63;;;10.10;;
18789;SDS011;9523;42.650;23.386;2023-03-03T05:29:03;18.03;;;10.33;;
18789;SDS011;9523;42.650;23.386;2023-03-03T05:31:34;20.10;;;10.83;;
18789;SDS011;9523;42.650;23.386;2023-03-03T05:34:01;18.63;;;11.83;;
18789;SDS011;9523;42.650;23.386;2023-03-03T05:36:29;18.03;;;10.90;;
18789;SDS011;9523;42.650;23.386;2023-03-03T05:38:56;21.70;;;11.83;;
18789;SDS011;9523;42.650;23.386;2023-03-03T05:41:23;20.57;;;11.87;;
18789;SDS011;9523;42.650;23.386;2023-03-03T05:43:50;21.03;;;11.70;;
18789;SDS011;9523;42.650;23.386;2023-03-03T05:46:16;19.37;;;11.40;;
18789;SDS011;9523;42.650;23.386;2023-03-03T05:48:43;23.27;;;12.33;;
18789;SDS011;9523;42.650;23.386;2023-03-03T05:51:10;17.03;;;11.07;;
18789;SDS011;9523;42.650;23.386;2023-03-03T05:53:39;20.20;;;11.47;;
18789;SDS011;9523;42.650;23.386;2023-03-03T05:56:06;22.60;;;11.40;;
18789;SDS011;9523;42.650;23.386;2023-03-03T05:58:33;22.40;;;11.83;;
18789;SDS011;9523;42.650;23.386;2023-03-03T06:00:59;17.77;;;11.20;;
18789;SDS011;9523;42.650;23.386;2023-03-03T06:03:26;18.77;;;11.50;;
18789;SDS011;9523;42.650;23.386;2023-03-03T06:05:53;22.67;;;12.00;;
18789;SDS011;9523;42.650;23.386;2023-03-03T06:08:20;18.17;;;11.03;;
18789;SDS011;9523;42.650;23.386;2023-03-03T06:10:49;20.67;;;11.20;;
18789;SDS011;9523;42.650;23.386;2023-03-03T06:13:15;18.20;;;10.97;;
18789;SDS011;9523;42.650;23.386;2023-03-03T06:15:42;19.27;;;10.80;;
18789;SDS011;9523;42.650;23.386;2023-03-03T06:18:18;17.57;;;10.27;;
18789;SDS011;9523;42.650;23.386;2023-03-03T06:20:49;19.50;;;11.30;;
18789;SDS011;9523;42.650;23.386;2023-03-03T06:23:16;20.17;;;10.23;;
18789;SDS011;9523;42.650;23.386;2023-03-03T06:25:43;20.80;;;12.27;;
18789;SDS011;9523;42.650;23.386;2023-03-03T06:28:12;16.27;;;10.47;;
18789;SDS011;9523;42.650;23.386;2023-03-03T06:30:40;21.53;;;10.67;;
18789;SDS011;9523;42.650;23.386;2023-03-03T06:33:07;22.60;;;11.77;;
18789;SDS011;9523;42.650;23.386;2023-03-03T06:35:33;22.27;;;11.33;;
18789;SDS011;9523;42.650;23.386;2023-03-03T06:38:00;19.47;;;10.87;;
18789;SDS011;9523;42.650;23.386;2023-03-03T06:40:27;18.40;;;10.93;;
18789;SDS011;9523;42.650;23.386;2023-03-03T06:42:54;21.60;;;10.63;;
18789;SDS011;9523;42.650;23.386;2023-03-03T06:45:22;19.17;;;10.77;;
18789;SDS011;9523;42.650;23.386;2023-03-03T06:47:49;18.47;;;10.50;;
18789;SDS011;9523;42.650;23.386;2023-03-03T06:50:16;17.53;;;9.63;;
18789;SDS011;9523;42.650;23.386;2023-03-03T06:52:45;17.10;;;9.73;;
18789;SDS011;9523;42.650;23.386;2023-03-03T06:55:13;17.70;;;9.93;;
18789;SDS011;9523;42.650;23.386;2023-03-03T06:57:47;18.07;;;9.90;;
18789;SDS011;9523;42.650;23.386;2023-03-03T07:00:15;13.97;;;8.80;;
18789;SDS011;9523;42.650;23.386;2023-03-03T07:02:45;15.87;;;9.63;;
18789;SDS011;9523;42.650;23.386;2023-03-03T07:05:15;17.93;;;10.00;;
18789;SDS011;9523;42.650;23.386;2023-03-03T07:07:43;14.57;;;8.50;;
18789;SDS011;9523;42.650;23.386;2023-03-03T07:10:17;14.90;;;8.40;;
18789;SDS011;9523;42.650;23.386;2023-03-03T07:12:48;15.23;;;8.63;;
18789;SDS011;9523;42.650;23.386;2023-03-03T07:15:16;12.00;;;7.97;;
18789;SDS011;9523;42.650;23.386;2023-03-03T07:17:47;14.70;;;8.30;;
18789;SDS011;9523;42.650;23.386;2023-03-03T07:20:17;12.57;;;7.43;;
18789;SDS011;9523;42.650;23.386;2023-03-03T07:22:46;14.73;;;8.37;;
18789;SDS011;9523;42.650;23.386;2023-03-03T07:25:18;11.97;;;7.70;;
18789;SDS011;9523;42.650;23.386;2023-03-03T07:27:53;12.63;;;7.60;;
18789;SDS011;9523;42.650;23.386;2023-03-03T07:30:26;11.17;;;7.10;;
18789;SDS011;9523;42.650;23.386;2023-03-03T07:33:00;11.73;;;7.50;;
18789;SDS011;9523;42.650;23.386;2023-03-03T07:35:28;11.07;;;7.30;;
18789;SDS011;9523;42.650;23.386;2023-03-03T07:38:10;12.47;;;6.93;;
18789;SDS011;9523;42.650;23.386;2023-03-03T07:40:48;10.03;;;6.73;;
18789;SDS011;9523;42.650;23.386;2023-03-03T07:43:33;10.63;;;6.93;;
18789;SDS011;9523;42.650;23.386;2023-03-03T07:46:02;11.40;;;6.73;;
18789;SDS011;9523;42.650;23.386;2023-03-03T07:48:53;14.60;;;6.97;;
18789;SDS011;9523;42.650;23.386;2023-03-03T07:51:21;10.50;;;6.27;;
18789;SDS011;9523;42.650;23.386;2023-03-03T07:53:52;11.33;;;6.87;;
18789;SDS011;9523;42.650;23.386;2023-03-03T07:56:26;10.70;;;7.20;;
18789;SDS011;9523;42.650;23.386;2023-03-03T07:58:55;10.77;;;7.30;;
18789;SDS011;9523;42.650;23.386;2023-03-03T08:01:27;12.37;;;7.83;;
18789;SDS011;9523;42.650;23.386;2023-03-03T08:04:09;11.87;;;7.67;;
18789;SDS011;9523;42.650;23.386;2023-03-03T08:06:48;11.50;;;7.87;;
18789;SDS011;9523;42.650;23.386;2023-03-03T08:09:36;13.27;;;7.90;;
18789;SDS011;9523;42.650;23.386;2023-03-03T08:15:07;11.60;;;7.87;;
18789;SDS011;9523;42.650;23.386;2023-03-03T08:17:42;14.30;;;8.07;;
18789;SDS011;9523;42.650;23.386;2023-03-03T08:23:11;14.30;;;8.37;;
18789;SDS011;9523;42.650;23.386;2023-03-03T08:25:38;13.93;;;8.10;;
18789;SDS011;9523;42.650;23.386;2023-03-03T08:28:06;15.20;;;9.27;;
18789;SDS011;9523;42.650;23.386;2023-03-03T08:30:33;14.80;;;9.63;;
18789;SDS011;9523;42.650;23.386;2023-03-03T08:33:00;13.90;;;8.77;;
18789;SDS011;9523;42.650;23.386;2023-03-03T08:35:27;16.60;;;9.27;;
18789;SDS011;9523;42.650;23.386;2023-03-03T08:37:55;15.83;;;9.30;;
18789;SDS011;9523;42.650;23.386;2023-03-03T08:40:22;15.60;;;9.47;;
18789;SDS011;9523;42.650;23.386;2023-03-03T08:42:49;14.60;;;8.77;;
18789;SDS011;9523;42.650;23.386;2023-03-03T08:45:16;13.03;;;8.37;;
18789;SDS011;9523;42.650;23.386;2023-03-03T08:47:43;12.27;;;8.23;;
18789;SDS011;9523;42.650;23.386;2023-03-03T08:50:10;15.03;;;8.93;;
18789;SDS011;9523;42.650;23.386;2023-03-03T08:52:38;16.27;;;9.47;;
18789;SDS011;9523;42.650;23.386;2023-03-03T08:55:06;12.30;;;7.63;;
18789;SDS011;9523;42.650;23.386;2023-03-03T08:57:34;12.47;;;8.37;;
18789;SDS011;9523;42.650;23.386;2023-03-03T09:00:00;13.77;;;8.80;;
18789;SDS011;9523;42.650;23.386;2023-03-03T09:02:28;13.77;;;8.70;;
18789;SDS011;9523;42.650;23.386;2023-03-03T09:04:55;18.37;;;11.03;;
18789;SDS011;9523;42.650;23.386;2023-03-03T09:07:22;20.93;;;11.10;;
18789;SDS011;9523;42.650;23.386;2023-03-03T09:09:49;19.73;;;10.27;;
18789;SDS011;9523;42.650;23.386;2023-03-03T09:12:18;11.90;;;7.53;;
18789;SDS011;9523;42.650;23.386;2023-03-03T09:14:50;11.00;;;7.40;;
18789;SDS011;9523;42.650;23.386;2023-03-03T09:17:23;10.13;;;6.90;;
18789;SDS011;9523;42.650;23.386;2023-03-03T09:19:51;16.37;;;10.27;;
18789;SDS011;9523;42.650;23.386;2023-03-03T09:22:23;12.90;;;8.73;;
18789;SDS011;9523;42.650;23.386;2023-03-03T09:24:52;14.93;;;9.57;;
18789;SDS011;9523;42.650;23.386;2023-03-03T09:27:24;16.27;;;8.67;;
18789;SDS011;9523;42.650;23.386;2023-03-03T09:29:53;13.53;;;8.13;;
18789;SDS011;9523;42.650;23.386;2023-03-03T09:32:23;20.07;;;11.13;;
18789;SDS011;9523;42.650;23.386;2023-03-03T09:34:56;15.97;;;8.83;;
18789;SDS011;9523;42.650;23.386;2023-03-03T09:37:26;15.23;;;9.00;;
18789;SDS011;9523;42.650;23.386;2023-03-03T09:39:57;13.70;;;7.97;;
18789;SDS011;9523;42.650;23.386;2023-03-03T09:42:37;11.47;;;7.40;;
18789;SDS011;9523;42.650;23.386;2023-03-03T09:48:24;10.53;;;7.17;;
18789;SDS011;9523;42.650;23.386;2023-03-03T09:51:03;9.30;;;6.57;;
18789;SDS011;9523;42.650;23.386;2023-03-03T09:53:47;14.77;;;7.70;;
18789;SDS011;9523;42.650;23.386;2023-03-03T09:56:28;8.63;;;6.67;;
18789;SDS011;9523;42.650;23.386;2023-03-03T09:59:04;10.40;;;6.20;;
18789;SDS011;9523;42.650;23.386;2023-03-03T10:01:57;9.00;;;6.30;;
18789;SDS011;9523;42.650;23.386;2023-03-03T10:04:40;9.43;;;6.10;;
18789;SDS011;9523;42.650;23.386;2023-03-03T10:07:18;10.50;;;6.43;;
18789;SDS011;9523;42.650;23.386;2023-03-03T10:10:13;12.73;;;8.57;;
18789;SDS011;9523;42.650;23.386;2023-03-03T10:12:53;10.73;;;7.00;;
18789;SDS011;9523;42.650;23.386;2023-03-03T10:15:36;8.17;;;6.20;;
18789;SDS011;9523;42.650;23.386;2023-03-03T10:18:14;10.17;;;7.00;;
18789;SDS011;9523;42.650;23.386;2023-03-03T10:20:58;10.40;;;7.13;;
18789;SDS011;9523;42.650;23.386;2023-03-03T10:26:26;13.27;;;7.90;;
18789;SDS011;9523;42.650;23.386;2023-03-03T10:29:17;10.87;;;8.27;;
18789;SDS011;9523;42.650;23.386;2023-03-03T10:31:56;13.67;;;8.93;;
18789;SDS011;9523;42.650;23.386;2023-03-03T10:34:43;13.60;;;8.73;;
18789;SDS011;9523;42.650;23.386;2023-03-03T10:37:20;12.33;;;8.37;;
18789;SDS011;9523;42.650;23.386;2023-03-03T10:39:59;13.57;;;7.97;;
18789;SDS011;9523;42.650;23.386;2023-03-03T10:42:41;14.17;;;8.80;;
18789;SDS011;9523;42.650;23.386;2023-03-03T10:45:32;23.00;;;13.17;;
18789;SDS011;9523;42.650;23.386;2023-03-03T10:48:21;27.43;;;15.30;;
18789;SDS011;9523;42.650;23.386;2023-03-03T10:51:00;48.50;;;24.13;;
18789;SDS011;9523;42.650;23.386;2023-03-03T10:53:40;19.00;;;11.07;;
18789;SDS011;9523;42.650;23.386;2023-03-03T10:56:23;46.47;;;25.20;;
18789;SDS011;9523;42.650;23.386;2023-03-03T10:59:05;43.93;;;24.60;;
18789;SDS011;9523;42.650;23.386;2023-03-03T11:01:44;14.47;;;8.73;;
18789;SDS011;9523;42.650;23.386;2023-03-03T11:04:22;14.83;;;9.37;;
18789;SDS011;9523;42.650;23.386;2023-03-03T11:06:57;14.60;;;9.70;;
18789;SDS011;9523;42.650;23.386;2023-03-03T11:09:35;14.77;;;10.20;;
18789;SDS011;9523;42.650;23.386;2023-03-03T11:12:20;13.70;;;9.60;;
18789;SDS011;9523;42.650;23.386;2023-03-03T11:14:55;16.73;;;10.27;;
18789;SDS011;9523;42.650;23.386;2023-03-03T11:17:35;14.50;;;9.33;;
18789;SDS011;9523;42.650;23.386;2023-03-03T11:20:19;16.03;;;10.60;;
18789;SDS011;9523;42.650;23.386;2023-03-03T11:23:00;15.20;;;10.10;;
18789;SDS011;9523;42.650;23.386;2023-03-03T11:25:48;15.63;;;9.23;;
18789;SDS011;9523;42.650;23.386;2023-03-03T11:28:24;14.53;;;8.67;;
18789;SDS011;9523;42.650;23.386;2023-03-03T11:31:04;13.50;;;8.97;;
18789;SDS011;9523;42.650;23.386;2023-03-03T11:33:40;13.87;;;9.40;;
18789;SDS011;9523;42.650;23.386;2023-03-03T11:36:17;12.13;;;9.17;;
18789;SDS011;9523;42.650;23.386;2023-03-03T11:38:50;17.87;;;11.70;;
18789;SDS011;9523;42.650;23.386;2023-03-03T11:41:25;20.20;;;14.30;;
18789;SDS011;9523;42.650;23.386;2023-03-03T11:43:58;16.20;;;12.30;;
18789;SDS011;9523;42.650;23.386;2023-03-03T11:46:31;16.20;;;11.13;;
18789;SDS011;9523;42.650;23.386;2023-03-03T11:49:03;17.67;;;11.67;;
18789;SDS011;9523;42.650;23.386;2023-03-03T11:51:43;17.47;;;11.80;;
18789;SDS011;9523;42.650;23.386;2023-03-03T11:54:17;16.50;;;11.53;;
18789;SDS011;9523;42.650;23.386;2023-03-03T11:56:49;14.67;;;10.70;;
18789;SDS011;9523;42.650;23.386;2023-03-03T12:02:11;18.63;;;12.07;;
18789;SDS011;9523;42.650;23.386;2023-03-03T12:04:48;18.80;;;12.53;;
18789;SDS011;9523;42.650;23.386;2023-03-03T12:07:21;18.43;;;13.60;;
18789;SDS011;9523;42.650;23.386;2023-03-03T12:09:57;17.20;;;12.33;;
18789;SDS011;9523;42.650;23.386;2023-03-03T12:12:34;21.47;;;14.03;;
18789;SDS011;9523;42.650;23.386;2023-03-03T12:15:09;20.27;;;13.00;;
18789;SDS011;9523;42.650;23.386;2023-03-03T12:17:50;19.27;;;12.70;;
18789;SDS011;9523;42.650;23.386;2023-03-03T12:20:37;31.00;;;16.53;;
18789;SDS011;9523;42.650;23.386;2023-03-03T12:23:17;20.47;;;13.07;;
18789;SDS011;9523;42.650;23.386;2023-03-03T12:25:56;71.53;;;35.07;;
18789;SDS011;9523;42.650;23.386;2023-03-03T12:28:28;33.47;;;19.30;;
18789;SDS011;9523;42.650;23.386;2023-03-03T12:31:08;66.17;;;34.40;;
18789;SDS011;9523;42.650;23.386;2023-03-03T12:33:49;35.03;;;20.50;;
18789;SDS011;9523;42.650;23.386;2023-03-03T12:36:24;30.00;;;18.87;;
18789;SDS011;9523;42.650;23.386;2023-03-03T12:39:03;41.40;;;23.23;;
18789;SDS011;9523;42.650;23.386;2023-03-03T12:41:39;41.90;;;25.27;;
18789;SDS011;9523;42.650;23.386;2023-03-03T12:44:16;40.90;;;23.63;;
18789;SDS011;9523;42.650;23.386;2023-03-03T12:46:51;39.47;;;23.27;;
18789;SDS011;9523;42.650;23.386;2023-03-03T12:49:27;21.03;;;14.03;;
18789;SDS011;9523;42.650;23.386;2023-03-03T12:52:08;24.53;;;15.07;;
18789;SDS011;9523;42.650;23.386;2023-03-03T12:54:52;23.07;;;14.23;;
18789;SDS011;9523;42.650;23.386;2023-03-03T12:57:31;22.47;;;14.50;;
18789;SDS011;9523;42.650;23.386;2023-03-03T13:00:18;20.17;;;13.90;;
18789;SDS011;9523;42.650;23.386;2023-03-03T13:03:00;23.70;;;14.90;;
18789;SDS011;9523;42.650;23.386;2023-03-03T13:05:39;19.20;;;14.00;;
18789;SDS011;9523;42.650;23.386;2023-03-03T13:08:20;24.83;;;15.40;;
18789;SDS011;9523;42.650;23.386;2023-03-03T13:10:58;22.67;;;16.23;;
18789;SDS011;9523;42.650;23.386;2023-03-03T13:13:35;24.63;;;15.50;;
18789;SDS011;9523;42.650;23.386;2023-03-03T13:16:08;26.20;;;16.00;;
18789;SDS011;9523;42.650;23.386;2023-03-03T13:18:41;27.73;;;16.83;;
18789;SDS011;9523;42.650;23.386;2023-03-03T13:21:16;24.00;;;15.50;;
18789;SDS011;9523;42.650;23.386;2023-03-03T13:23:51;21.97;;;13.40;;
18789;SDS011;9523;42.650;23.386;2023-03-03T13:26:27;24.17;;;13.90;;
18789;SDS011;9523;42.650;23.386;2023-03-03T13:29:02;14.80;;;11.00;;
18789;SDS011;9523;42.650;23.386;2023-03-03T13:31:45;16.73;;;11.63;;
18789;SDS011;9523;42.650;23.386;2023-03-03T13:34:18;16.10;;;10.87;;
18789;SDS011;9523;42.650;23.386;2023-03-03T13:36:52;14.90;;;10.27;;
18789;SDS011;9523;42.650;23.386;2023-03-03T13:39:24;15.30;;;10.83;;
18789;SDS011;9523;42.650;23.386;2023-03-03T13:41:58;17.73;;;10.90;;
18789;SDS011;9523;42.650;23.386;2023-03-03T13:44:28;13.80;;;10.00;;
18789;SDS011;9523;42.650;23.386;2023-03-03T13:47:02;12.60;;;9.40;;
18789;SDS011;9523;42.650;23.386;2023-03-03T13:52:37;13.70;;;10.60;;
18789;SDS011;9523;42.650;23.386;2023-03-03T13:55:16;12.93;;;9.57;;
18789;SDS011;9523;42.650;23.386;2023-03-03T13:57:56;12.23;;;9.03;;
18789;SDS011;9523;42.650;23.386;2023-03-03T14:00:33;12.60;;;9.10;;
18789;SDS011;9523;42.650;23.386;2023-03-03T14:06:23;144.33;;;64.67;;
18789;SDS011;9523;42.650;23.386;2023-03-03T14:12:03;76.77;;;37.10;;
18789;SDS011;9523;42.650;23.386;2023-03-03T14:14:45;28.07;;;15.33;;
18789;SDS011;9523;42.650;23.386;2023-03-03T14:17:19;30.33;;;17.77;;
18789;SDS011;9523;42.650;23.386;2023-03-03T14:19:56;50.93;;;26.30;;
18789;SDS011;9523;42.650;23.386;2023-03-03T14:22:29;18.20;;;11.97;;
18789;SDS011;9523;42.650;23.386;2023-03-03T14:25:06;26.03;;;15.43;;
18789;SDS011;9523;42.650;23.386;2023-03-03T14:27:36;21.00;;;12.60;;
18789;SDS011;9523;42.650;23.386;2023-03-03T14:32:59;16.20;;;11.17;;
18789;SDS011;9523;42.650;23.386;2023-03-03T14:35:28;14.03;;;10.43;;
18789;SDS011;9523;42.650;23.386;2023-03-03T14:38:01;15.30;;;10.63;;
18789;SDS011;9523;42.650;23.386;2023-03-03T14:40:31;17.83;;;12.10;;
18789;SDS011;9523;42.650;23.386;2023-03-03T14:43:02;20.40;;;12.23;;
18789;SDS011;9523;42.650;23.386;2023-03-03T14:45:45;16.27;;;11.23;;
18789;SDS011;9523;42.650;23.386;2023-03-03T14:48:14;17.30;;;11.50;;
18789;SDS011;9523;42.650;23.386;2023-03-03T14:50:45;19.47;;;12.93;;
18789;SDS011;9523;42.650;23.386;2023-03-03T14:53:19;19.60;;;12.47;;
18789;SDS011;9523;42.650;23.386;2023-03-03T14:55:48;17.43;;;12.77;;
18789;SDS011;9523;42.650;23.386;2023-03-03T15:01:10;18.70;;;12.83;;
18789;SDS011;9523;42.650;23.386;2023-03-03T15:03:44;17.27;;;12.57;;
18789;SDS011;9523;42.650;23.386;2023-03-03T15:06:27;20.77;;;14.37;;
18789;SDS011;9523;42.650;23.386;2023-03-03T15:12:04;20.50;;;14.87;;
18789;SDS011;9523;42.650;23.386;2023-03-03T15:15:06;22.97;;;15.37;;
18789;SDS011;9523;42.650;23.386;2023-03-03T15:17:53;18.83;;;14.20;;
18789;SDS011;9523;42.650;23.386;2023-03-03T15:26:08;22.70;;;15.23;;
18789;SDS011;9523;42.650;23.386;2023-03-03T15:28:42;22.80;;;15.53;;
18789;SDS011;9523;42.650;23.386;2023-03-03T15:31:21;21.00;;;15.70;;
18789;SDS011;9523;42.650;23.386;2023-03-03T15:34:04;22.07;;;15.07;;
18789;SDS011;9523;42.650;23.386;2023-03-03T15:36:50;23.07;;;15.70;;
18789;SDS011;9523;42.650;23.386;2023-03-03T15:39:23;20.73;;;15.13;;
18789;SDS011;9523;42.650;23.386;2023-03-03T15:41:59;23.70;;;16.43;;
18789;SDS011;9523;42.650;23.386;2023-03-03T15:44:43;22.97;;;16.00;;